Time;durP1;ratioP1;P1;durP2;ratioP2;P2;SDS_P1;SDS_P2;PMS_P1;PMS_P2;Temp;Humidity;BMP_temperature;BMP_pressure;BME280_temperature;BME280_humidity;BME280_pressure;Samples;Min_cycle;Max_cycle;Signal;HPM_P1;HPM_P2
2021/05/12 00:02:07;;;;;;;1999.90;999.90;;;;;;;17.51;79.05;100044.84;15789045;28;20397;-62
2021/05/12 00:09:39;;;;;;;1999.90;999.90;;;;;;;17.01;79.58;100071.94;15771297;28;20044;-60
2021/05/12 00:17:16;;;;;;;1999.90;999.90;;;;;;;16.90;79.45;100063.41;15788299;28;20122;-62
2021/05/12 00:24:48;;;;;;;1999.90;999.90;;;;;;;17.01;78.62;100069.13;15805741;28;20138;-62
2021/05/12 00:32:20;;;;;;;1999.90;999.90;;;;;;;17.13;77.73;100065.16;15790575;28;20072;-61
2021/05/12 00:39:52;;;;;;;1999.90;999.90;;;;;;;17.01;77.49;100064.28;15786380;28;20044;-61
2021/05/12 00:47:28;;;;;;;1999.90;999.90;;;;;;;17.14;77.63;100076.06;15768988;28;20047;-59
2021/05/12 00:55:00;;;;;;;1999.90;999.90;;;;;;;17.01;78.17;100106.56;15768689;28;20045;-60
2021/05/12 01:02:33;;;;;;;1999.90;999.90;;;;;;;16.97;77.55;100121.81;15803258;28;20265;-61
2021/05/12 01:10:06;;;;;;;1999.90;999.90;;;;;;;16.46;79.03;100131.00;15783956;28;20048;-60
2021/05/12 01:17:38;;;;;;;1999.90;999.90;;;;;;;16.81;78.28;100124.13;15802998;28;20040;-61
2021/05/12 01:25:11;;;;;;;1999.90;999.90;;;;;;;16.44;79.31;100119.31;15802308;28;20067;-61
2021/05/12 01:32:43;;;;;;;1999.90;999.90;;;;;;;16.95;76.98;100144.75;15784402;28;20119;-61
2021/05/12 01:40:16;;;;;;;1999.90;999.90;;;;;;;16.71;77.16;100156.63;15784559;28;20123;-62
2021/05/12 01:47:47;;;;;;;1999.90;999.90;;;;;;;16.34;76.18;100148.97;15801837;28;20186;-62
2021/05/12 01:55:20;;;;;;;1999.90;999.90;;;;;;;16.30;75.85;100114.34;15783390;28;20560;-59
2021/05/12 02:02:52;;;;;;;1999.90;999.90;;;;;;;16.30;75.20;100127.63;15783362;28;20177;-63
2021/05/12 02:10:26;;;;;;;1999.90;999.90;;;;;;;16.24;76.36;100123.53;15782988;28;20048;-59
2021/05/12 02:17:58;;;;;;;1999.90;999.90;;;;;;;16.30;76.10;100139.69;15783896;28;20068;-58
2021/05/12 02:25:31;;;;;;;1999.90;999.90;;;;;;;16.61;74.62;100148.84;15812151;28;20048;-58
2021/05/12 02:33:04;;;;;;;1999.90;999.90;;;;;;;16.58;74.25;100184.25;15813128;28;20044;-60
2021/05/12 02:40:36;;;;;;;1999.90;999.90;;;;;;;16.40;75.25;100166.34;15794087;28;20142;-62
2021/05/12 02:48:08;;;;;;;1999.90;999.90;;;;;;;16.14;75.90;100153.16;15811027;28;20055;-61
2021/05/12 02:55:40;;;;;;;1999.90;999.90;;;;;;;16.29;75.78;100171.03;15804210;28;20490;-58
2021/05/12 03:03:12;;;;;;;1999.90;999.90;;;;;;;16.28;75.61;100161.78;15810554;28;20050;-58
2021/05/12 03:10:48;;;;;;;1999.90;999.90;;;;;;;16.27;75.31;100163.00;15775626;28;20129;-61
2021/05/12 03:18:20;;;;;;;1999.90;999.90;;;;;;;16.26;74.96;100160.56;15774107;28;20077;-60
2021/05/12 03:25:52;;;;;;;1999.90;999.90;;;;;;;15.86;77.01;100157.28;15790906;28;20305;-59
2021/05/12 03:33:24;;;;;;;1999.90;999.90;;;;;;;15.66;77.45;100163.41;15789995;28;20036;-60
2021/05/12 03:40:57;;;;;;;1999.90;999.90;;;;;;;15.42;78.08;100162.63;15808059;28;20115;-60
2021/05/12 03:48:28;;;;;;;1999.90;999.90;;;;;;;15.63;77.02;100176.25;15788563;28;20040;-59
2021/05/12 03:56:01;;;;;;;1999.90;999.90;;;;;;;15.88;76.48;100183.00;15788585;28;20055;-60
2021/05/12 04:03:32;;;;;;;1999.90;999.90;;;;;;;15.84;76.44;100175.72;15807043;28;20044;-62
2021/05/12 04:11:05;;;;;;;1999.90;999.90;;;;;;;16.01;75.10;100169.50;15789000;28;20047;-62
2021/05/12 04:18:36;;;;;;;1999.90;999.90;;;;;;;16.00;74.29;100170.69;15787703;28;20409;-62
2021/05/12 04:26:08;;;;;;;1999.90;999.90;;;;;;;16.22;74.16;100191.47;15786765;28;20568;-61
2021/05/12 04:33:46;;;;;;;1999.90;999.90;;;;;;;16.11;74.17;100219.47;15786663;28;20044;-62
2021/05/12 04:41:18;;;;;;;1999.90;999.90;;;;;;;16.43;73.75;100235.94;15786787;28;20040;-62
2021/05/12 04:48:50;;;;;;;1999.90;999.90;;;;;;;16.44;73.22;100252.47;15786461;28;20123;-61
2021/05/12 04:56:23;;;;;;;1999.90;999.90;;;;;;;16.57;73.08;100255.00;15785601;28;20048;-62
2021/05/12 05:03:54;;;;;;;1999.90;999.90;;;;;;;16.51;72.81;100267.84;15768393;28;20575;-62
2021/05/12 05:11:27;;;;;;;1999.90;999.90;;;;;;;16.50;73.11;100255.75;15779730;28;20373;-61
2021/05/12 05:18:58;;;;;;;1999.90;999.90;;;;;;;16.01;74.26;100265.19;15779222;28;20047;-61
2021/05/12 05:26:31;;;;;;;1999.90;999.90;;;;;;;16.21;74.09;100274.28;15800881;28;20071;-62
2021/05/12 05:34:03;;;;;;;1999.90;999.90;;;;;;;16.20;73.50;100274.69;15783543;28;20048;-62
2021/05/12 05:41:55;;;;;;;1999.90;999.90;;;;;;;16.71;72.97;100272.94;15784050;28;20192;-62
2021/05/12 05:49:46;;;;;;;1999.90;999.90;;;;;;;16.55;72.70;100283.56;15799471;28;20113;-62
2021/05/12 05:57:37;;;;;;;1999.90;999.90;;;;;;;16.35;72.56;100282.91;15809827;28;20447;-62
2021/05/12 06:05:27;;;;;;;1999.90;999.90;;;;;;;16.62;71.75;100261.13;15813280;28;20201;-62
2021/05/12 06:13:18;;;;;;;1999.90;999.90;;;;;;;16.19;72.22;100281.50;15794245;28;20048;-62
2021/05/12 06:21:08;;;;;;;1999.90;999.90;;;;;;;16.20;71.97;100283.94;15813576;28;20089;-62
2021/05/12 06:29:00;;;;;;;1999.90;999.90;;;;;;;17.08;70.16;100291.81;15813116;28;20358;-61
2021/05/12 06:36:50;;;;;;;1999.90;999.90;;;;;;;17.45;69.09;100294.59;15811252;28;20131;-63
2021/05/12 06:44:41;;;;;;;1999.90;999.90;;;;;;;16.80;69.74;100314.09;15811307;28;20515;-63
2021/05/12 06:52:13;;;;;;;1999.90;999.90;;;;;;;17.14;69.17;100314.84;15792676;28;20044;-63
2021/05/12 06:59:45;;;;;;;1999.90;999.90;;;;;;;16.98;69.25;100313.06;15811052;28;20040;-63
2021/05/12 07:07:17;;;;;;;1999.90;999.90;;;;;;;17.25;69.06;100304.50;15791466;28;20523;-62
2021/05/12 07:14:49;;;;;;;1999.90;999.90;;;;;;;17.13;68.91;100318.88;15774934;28;20082;-62
2021/05/12 07:22:21;;;;;;;1999.90;999.90;;;;;;;16.91;69.69;100332.72;15774072;28;20127;-63
2021/05/12 07:29:53;;;;;;;1999.90;999.90;;;;;;;17.02;70.21;100342.13;15808414;28;20113;-62
2021/05/12 07:37:25;;;;;;;1999.90;999.90;;;;;;;17.49;68.90;100336.94;15789654;28;20039;-63
2021/05/12 07:44:57;;;;;;;1999.90;999.90;;;;;;;18.04;66.89;100337.03;15789734;28;20064;-62
2021/05/12 07:52:29;;;;;;;1999.90;999.90;;;;;;;17.15;68.82;100322.91;15807028;28;20044;-62
2021/05/12 08:00:04;;;;;;;1999.90;999.90;;;;;;;17.55;68.04;100330.56;15788484;28;20072;-62
2021/05/12 08:07:45;;;;;;;1999.90;999.90;;;;;;;17.72;68.24;100315.00;15806148;28;20115;-62
2021/05/12 08:15:18;;;;;;;1999.90;999.90;;;;;;;17.89;67.14;100330.44;15787648;28;20044;-62
2021/05/12 08:22:49;;;;;;;1999.90;999.90;;;;;;;16.95;69.30;100346.84;15787105;28;20051;-62
2021/05/12 08:30:23;;;;;;;1999.90;999.90;;;;;;;17.45;69.58;100342.56;15787106;28;20052;-63
2021/05/12 08:37:55;;;;;;;1999.90;999.90;;;;;;;17.63;67.48;100339.09;15804815;28;20493;-63
2021/05/12 08:45:28;;;;;;;1999.90;999.90;;;;;;;17.88;67.31;100338.09;15786206;28;20268;-63
2021/05/12 08:53:00;;;;;;;1999.90;999.90;;;;;;;17.36;69.04;100356.16;15807110;28;20501;-61
2021/05/12 09:00:34;;;;;;;1999.90;999.90;;;;;;;17.71;68.58;100357.69;15803672;28;20085;-63
2021/05/12 09:08:06;;;;;;;1999.90;999.90;;;;;;;18.09;66.93;100362.84;15785436;28;20415;-61
2021/05/12 09:15:42;;;;;;;1999.90;999.90;;;;;;;17.65;68.65;100365.69;15786918;28;20520;-62
2021/05/12 09:23:17;;;;;;;1999.90;999.90;;;;;;;17.71;68.45;100361.34;15784390;28;20036;-61
2021/05/12 09:31:03;;;;;;;1999.90;999.90;;;;;;;17.82;68.56;100336.03;15783679;28;20051;-62
2021/05/12 09:38:36;;;;;;;1999.90;999.90;;;;;;;17.86;68.31;100328.41;15784532;28;20052;-62
2021/05/12 09:46:22;;;;;;;1999.90;999.90;;;;;;;18.72;64.77;100318.44;15801770;28;20067;-63
2021/05/12 09:54:06;;;;;;;1999.90;999.90;;;;;;;18.01;67.18;100334.97;15783272;28;20096;-63
2021/05/12 10:01:40;;;;;;;1999.90;999.90;;;;;;;17.85;67.38;100326.78;15800941;28;20497;-62
2021/05/12 10:09:20;;;;;;;1999.90;999.90;;;;;;;18.01;66.93;100326.50;15782466;28;20044;-62
2021/05/12 10:16:52;;;;;;;1999.90;999.90;;;;;;;18.01;67.35;100323.66;15801602;28;20048;-63
2021/05/12 10:24:24;;;;;;;1999.90;999.90;;;;;;;17.89;66.63;100330.44;15799995;28;20113;-63
2021/05/12 10:31:56;;;;;;;1999.90;999.90;;;;;;;18.50;65.25;100333.66;15782170;28;20047;-63
2021/05/12 10:39:28;;;;;;;1999.90;999.90;;;;;;;18.46;65.44;100345.75;15781926;28;20496;-62
2021/05/12 10:47:05;;;;;;;1999.90;999.90;;;;;;;18.57;65.58;100357.09;15810381;28;20044;-62
2021/05/12 10:54:39;;;;;;;1999.90;999.90;;;;;;;18.78;64.96;100342.28;15791923;28;20237;-63
2021/05/12 11:02:12;;;;;;;1999.90;999.90;;;;;;;18.92;64.52;100367.75;15791529;28;20131;-63
2021/05/12 11:09:47;;;;;;;1999.90;999.90;;;;;;;18.76;64.52;100375.78;15792609;28;20040;-63
2021/05/12 11:17:22;;;;;;;1999.90;999.90;;;;;;;18.55;64.97;100381.28;15791623;28;20044;-63
2021/05/12 11:24:59;;;;;;;1999.90;999.90;;;;;;;18.03;67.01;100358.78;15807767;28;20052;-63
2021/05/12 11:32:32;;;;;;;1999.90;999.90;;;;;;;18.57;65.32;100364.75;15809672;28;20182;-63
2021/05/12 11:40:06;;;;;;;;;;;;;;;18.62;64.82;100358.72;15809728;28;20051;-63
2021/05/12 11:47:40;;;;;;;1999.90;999.90;;;;;;;18.47;66.64;100360.69;15807805;28;19919;-64
2021/05/12 11:55:12;;;;;;;1999.90;999.90;;;;;;;18.68;65.93;100362.84;15806468;28;20286;-63
2021/05/12 12:02:59;;;;;;;1999.90;999.90;;;;;;;18.61;64.97;100360.75;15806245;28;20074;-63
2021/05/12 12:10:33;;;;;;;1999.90;999.90;;;;;;;18.46;65.17;100373.19;15771566;28;20500;-62
2021/05/12 12:18:06;;;;;;;1999.90;999.90;;;;;;;18.33;65.64;100369.03;15787352;28;20048;-61
2021/05/12 12:25:47;;;;;;;1999.90;999.90;;;;;;;18.48;65.67;100381.25;15770500;28;20048;-62
2021/05/12 12:33:21;;;;;;;1999.90;999.90;;;;;;;18.70;65.22;100383.03;15804487;28;20048;-63
2021/05/12 12:40:52;;;;;;;1999.90;999.90;;;;;;;18.39;66.47;100385.25;15786122;28;20056;-62
2021/05/12 12:48:25;;;;;;;1999.90;999.90;;;;;;;18.03;67.09;100383.34;15785633;28;20396;-63
2021/05/12 12:56:08;;;;;;;1999.90;999.90;;;;;;;18.37;65.92;100378.38;15803619;28;20044;-64
2021/05/12 13:03:40;;;;;;;1999.90;999.90;;;;;;;18.50;65.98;100373.19;15779627;28;20044;-62
2021/05/12 13:11:12;;;;;;;1999.90;999.90;;;;;;;18.65;66.14;100378.56;15802357;28;20040;-62
2021/05/12 13:18:56;;;;;;;1999.90;999.90;;;;;;;18.53;65.58;100381.69;15802485;28;20512;-64
2021/05/12 13:26:32;;;;;;;1999.90;999.90;;;;;;;18.29;66.54;100388.00;15800908;28;20527;-64
2021/05/12 13:34:08;;;;;;;1999.90;999.90;;;;;;;18.53;66.17;100386.53;15783661;28;20050;-64
2021/05/12 13:41:40;;;;;;;1999.90;999.90;;;;;;;18.24;66.99;100399.69;15787795;28;20501;-64
2021/05/12 13:49:14;;;;;;;1999.90;999.90;;;;;;;18.26;67.28;100400.91;15804674;28;20063;-63
2021/05/12 13:56:51;;;;;;;1999.90;999.90;;;;;;;18.06;67.93;100405.19;15801972;28;20040;-63
2021/05/12 14:04:27;;;;;;;1999.90;999.90;;;;;;;18.25;67.39;100399.28;15783757;28;20524;-63
2021/05/12 14:12:01;;;;;;;1999.90;999.90;;;;;;;18.15;67.47;100400.00;15766267;28;20048;-63
2021/05/12 14:19:34;;;;;;;1999.90;999.90;;;;;;;18.15;67.86;100409.28;15792697;28;20097;-62
2021/05/12 14:27:06;;;;;;;1999.90;999.90;;;;;;;18.14;68.33;100406.88;15812333;28;20086;-62
2021/05/12 14:34:41;;;;;;;1999.90;999.90;;;;;;;18.24;67.27;100408.16;15793687;28;20059;-63
2021/05/12 14:42:12;;;;;;;1999.90;999.90;;;;;;;18.06;67.50;100405.19;15793101;28;20059;-63
2021/05/12 14:49:45;;;;;;;1999.90;999.90;;;;;;;17.75;68.85;100387.59;15810743;28;20043;-63
2021/05/12 14:57:29;;;;;;;1999.90;999.90;;;;;;;17.78;68.66;100383.16;15792717;28;20505;-63
2021/05/12 15:05:19;;;;;;;1999.90;999.90;;;;;;;17.87;68.88;100390.09;15810856;28;20125;-64
2021/05/12 15:12:51;;;;;;;1999.90;999.90;;;;;;;17.91;68.69;100403.44;15809796;28;20040;-63
2021/05/12 15:20:24;;;;;;;1999.90;999.90;;;;;;;17.89;68.83;100412.28;15809237;28;20040;-64
2021/05/12 15:27:57;;;;;;;1999.90;999.90;;;;;;;17.56;70.11;100399.88;15789612;28;20381;-64
2021/05/12 15:35:29;;;;;;;;;;;;;;;17.77;70.52;100402.13;15774035;28;20048;-62
2021/05/12 15:43:01;;;;;;;1999.90;999.90;;;;;;;17.35;72.15;100398.84;15772770;28;19951;-63
2021/05/12 15:50:34;;;;;;;1999.90;999.90;;;;;;;17.38;73.10;100392.44;15808395;28;20063;-63
2021/05/12 15:58:07;;;;;;;1999.90;999.90;;;;;;;17.16;74.37;100383.75;15789625;28;20071;-64
2021/05/12 16:05:39;;;;;;;1999.90;999.90;;;;;;;17.11;74.79;100398.19;15807179;28;20059;-60
2021/05/12 16:13:12;;;;;;;1999.90;999.90;;;;;;;16.80;76.16;100384.53;15806902;28;20070;-61
2021/05/12 16:20:44;;;;;;;1999.90;999.90;;;;;;;16.65;76.69;100397.56;15803859;28;20044;-63
2021/05/12 16:28:16;;;;;;;1999.90;999.90;;;;;;;16.64;76.83;100393.13;15780135;28;20291;-62
2021/05/12 16:35:48;;;;;;;1999.90;999.90;;;;;;;16.41;77.68;100371.50;15772754;28;20452;-62
2021/05/12 16:43:20;;;;;;;1999.90;999.90;;;;;;;16.15;79.05;100383.59;15774493;28;20127;-62
2021/05/12 16:50:58;;;;;;;1999.90;999.90;;;;;;;16.08;78.86;100391.94;15810687;28;20072;-63
2021/05/12 16:58:29;;;;;;;1999.90;999.90;;;;;;;16.40;77.75;100400.03;15783193;28;20067;-64
2021/05/12 17:06:02;;;;;;;1999.90;999.90;;;;;;;16.39;77.92;100418.13;15786855;28;20139;-61
2021/05/12 17:13:33;;;;;;;1999.90;999.90;;;;;;;16.40;77.70;100398.03;15866251;28;20066;-63
2021/05/12 17:21:06;;;;;;;1999.90;999.90;;;;;;;16.24;79.35;100346.72;15796408;28;20054;-64
2021/05/12 17:28:42;;;;;;;1999.90;999.90;;;;;;;16.08;79.44;100310.31;15782745;28;20039;-61
2021/05/12 17:36:15;;;;;;;1999.90;999.90;;;;;;;16.05;79.82;100363.75;15801705;28;20059;-63
2021/05/12 17:43:48;;;;;;;1999.90;999.90;;;;;;;15.82;81.00;100342.06;15784204;28;20477;-63
2021/05/12 17:51:21;;;;;;;1999.90;999.90;;;;;;;15.92;80.87;100337.78;15807209;28;20043;-63
2021/05/12 17:58:55;;;;;;;1999.90;999.90;;;;;;;15.80;81.19;100324.75;15798711;28;20123;-60
2021/05/12 18:06:34;;;;;;;1999.90;999.90;;;;;;;15.82;81.23;100333.63;15795853;28;20052;-61
2021/05/12 18:21:58;;;;;;;1999.90;999.90;;;;;;;15.83;80.76;100363.38;15793970;28;20048;-63
2021/05/12 18:29:33;;;;;;;1999.90;999.90;;;;;;;16.00;80.79;100376.13;15812634;28;20520;-61
2021/05/12 18:37:11;;;;;;;1999.90;999.90;;;;;;;16.06;79.78;100385.88;15791188;28;20128;-63
2021/05/12 18:44:43;;;;;;;1999.90;999.90;;;;;;;15.95;79.84;100365.19;15811695;28;20048;-62
2021/05/12 18:52:15;;;;;;;1999.90;999.90;;;;;;;15.94;80.00;100372.00;15775670;28;20051;-61
2021/05/12 18:59:47;;;;;;;1999.90;999.90;;;;;;;16.04;79.94;100373.34;15791356;28;20097;-62
2021/05/12 19:07:26;;;;;;;1999.90;999.90;;;;;;;15.79;80.87;100375.78;15788385;28;20056;-63
2021/05/12 19:15:05;;;;;;;1999.90;999.90;;;;;;;15.78;81.06;100403.09;15808537;28;20485;-60
2021/05/12 19:22:42;;;;;;;1999.90;999.90;;;;;;;15.74;81.35;100407.03;15809607;28;20388;-64
2021/05/12 19:45:52;;;;;;;1999.90;999.90;;;;;;;15.95;80.38;100401.78;15807674;28;20452;-61
2021/05/12 19:53:27;;;;;;;1999.90;999.90;;;;;;;15.59;81.62;100403.13;15807582;28;20401;-64
2021/05/12 20:00:59;;;;;;;1999.90;999.90;;;;;;;15.72;81.15;100398.16;15789057;28;20091;-63
2021/05/12 20:08:36;;;;;;;1999.90;999.90;;;;;;;15.65;81.15;100401.66;15776403;28;20109;-62
2021/05/12 20:16:07;;;;;;;1999.90;999.90;;;;;;;15.83;80.73;100399.13;15805810;28;20420;-64
2021/05/12 20:23:40;;;;;;;1999.90;999.90;;;;;;;15.97;80.40;100393.75;15757164;28;20094;-64
2021/05/12 20:31:12;;;;;;;1999.90;999.90;;;;;;;16.04;79.81;100393.84;15742890;28;20059;-61
2021/05/12 20:38:44;;;;;;;1999.90;999.90;;;;;;;15.97;80.00;100381.69;15754927;28;20064;-61
2021/05/12 20:46:16;;;;;;;1999.90;999.90;;;;;;;15.86;80.16;100382.34;15788367;28;20079;-60
2021/05/12 20:53:50;;;;;;;1999.90;999.90;;;;;;;15.93;80.09;100370.38;15787798;28;20074;-60
2021/05/12 21:01:22;;;;;;;1999.90;999.90;;;;;;;15.85;79.99;100363.84;15786204;28;20048;-61
2021/05/12 21:08:54;;;;;;;1999.90;999.90;;;;;;;15.81;80.54;100359.31;15769483;28;20040;-62
2021/05/12 21:16:26;;;;;;;1999.90;999.90;;;;;;;15.65;81.37;100358.66;15785214;28;20052;-63
2021/05/12 21:23:58;;;;;;;1999.90;999.90;;;;;;;15.71;80.34;100360.78;15783863;28;20075;-62
2021/05/12 21:31:30;;;;;;;1999.90;999.90;;;;;;;15.66;80.67;100358.28;15785183;28;20074;-62
2021/05/12 21:39:04;;;;;;;1999.90;999.90;;;;;;;15.65;80.14;100358.66;15767471;28;20435;-61
2021/05/12 21:46:35;;;;;;;;;;;;;;;15.77;79.11;100361.28;15802381;28;20052;-61
2021/05/12 21:54:07;;;;;;;1999.90;999.90;;;;;;;15.55;79.94;100348.81;15802290;28;19920;-63
2021/05/12 22:01:39;;;;;;;1999.90;999.90;;;;;;;15.34;80.40;100360.50;15767258;28;20094;-62
2021/05/12 22:24:58;;;;;;;1999.90;999.90;;;;;;;15.34;79.52;100338.03;15782612;28;20044;-62
2021/05/12 22:32:30;;;;;;;1999.90;999.90;;;;;;;15.23;79.79;100346.25;15782414;28;20448;-63
2021/05/12 22:40:04;;;;;;;1999.90;999.90;;;;;;;15.40;79.08;100338.50;15792017;28;20044;-63
2021/05/12 22:47:36;;;;;;;1999.90;999.90;;;;;;;15.31;78.80;100345.19;15793225;28;20052;-63
2021/05/12 22:55:11;;;;;;;1999.90;999.90;;;;;;;15.24;79.88;100333.03;15811148;28;20040;-64
2021/05/12 23:02:44;;;;;;;1999.90;999.90;;;;;;;15.44;78.35;100325.34;15811736;28;20107;-62
2021/05/12 23:10:16;;;;;;;1999.90;999.90;;;;;;;15.44;78.53;100325.34;15775898;28;20052;-62
2021/05/12 23:17:48;;;;;;;1999.90;999.90;;;;;;;15.27;79.03;100329.44;15791347;28;20062;-62
2021/05/12 23:25:21;;;;;;;1999.90;999.90;;;;;;;15.18;79.06;100321.25;15806283;28;20047;-62
2021/05/12 23:32:53;;;;;;;1999.90;999.90;;;;;;;15.19;79.13;100328.50;15808990;28;20042;-62
2021/05/12 23:40:25;;;;;;;1999.90;999.90;;;;;;;15.10;79.32;100333.53;15809457;28;20047;-63
2021/05/12 23:47:57;;;;;;;1999.90;999.90;;;;;;;15.14;78.59;100344.88;15789192;28;20459;-62
2021/05/12 23:55:29;;;;;;;1999.90;999.90;;;;;;;15.16;78.59;100348.13;15789268;28;20148;-63
